KPIB/PIB METAR and TAF weather

Enter ICAO airport designator
Station Type Date Time Source
KPIB METAR 2020/07/06 07:04 UTC NOAA

KPIB 060704Z AUTO 00000KT 8SM OVC006 23/23 A2991 RMK AO2 CIG 002V008 PNO $


Station Type Date Time Source
KPIB Decoded METAR 2020/07/06 07:04 UTC NOAA

Hattiesburg/Laurel, Hattiesburg-Laurel Regional Airport, MS, United States (KPIB) 31-28N 089-20W
Jul 06, 2020 - 03:04 AM EDT / 2020.07.06 0704 UTC
Wind: Calm:0
Visibility: 8 mile(s):0
Sky conditions: overcast
Temperature: 73 F (23 C)
Dew Point: 73 F (23 C)
Relative Humidity: 100%
Pressure (altimeter): 29.91 in. Hg (1012 hPa)
ob: KPIB 060704Z AUTO 00000KT 8SM OVC006 23/23 A2991 RMK AO2 CIG 002V008 PNO
cycle: 7

Station Type Date Time Source
KPIB TAF 2020/07/06 06:33 UTC NOAA

TAF KPIB 060531Z 0606/0706 10004KT 6SM BR BKN004
FM061100 00000KT 4SM BR OVC003
FM061400 21003KT P6SM BKN015
FM061600 24004KT P6SM VCTS BKN025CB
FM061900 26006KT P6SM VCTS BKN040CB
FM070200 00000KT P6SM BKN100

Example: see airport list